sensor_id;sensor_type;location;lat;lon;timestamp;P1;durP1;ratioP1;P2;durP2;ratioP2
4106;SDS011;21906;50.812;7.132;2024-01-11T00:02:23;41.83;;;21.47;;
4106;SDS011;21906;50.812;7.132;2024-01-11T00:04:49;42.80;;;21.23;;
4106;SDS011;21906;50.812;7.132;2024-01-11T00:07:15;38.63;;;19.83;;
4106;SDS011;21906;50.812;7.132;2024-01-11T00:09:41;47.03;;;22.07;;
4106;SDS011;21906;50.812;7.132;2024-01-11T00:12:07;44.23;;;20.50;;
4106;SDS011;21906;50.812;7.132;2024-01-11T00:14:33;41.87;;;21.30;;
4106;SDS011;21906;50.812;7.132;2024-01-11T00:17:00;42.57;;;19.97;;
4106;SDS011;21906;50.812;7.132;2024-01-11T00:19:26;41.30;;;19.63;;
4106;SDS011;21906;50.812;7.132;2024-01-11T00:21:51;35.87;;;19.30;;
4106;SDS011;21906;50.812;7.132;2024-01-11T00:24:17;41.00;;;21.00;;
4106;SDS011;21906;50.812;7.132;2024-01-11T00:26:43;35.23;;;19.40;;
4106;SDS011;21906;50.812;7.132;2024-01-11T00:29:08;37.23;;;20.03;;
4106;SDS011;21906;50.812;7.132;2024-01-11T00:31:34;36.60;;;19.73;;
4106;SDS011;21906;50.812;7.132;2024-01-11T00:34:00;36.03;;;19.23;;
4106;SDS011;21906;50.812;7.132;2024-01-11T00:36:26;39.77;;;20.30;;
4106;SDS011;21906;50.812;7.132;2024-01-11T00:38:53;37.93;;;20.80;;
4106;SDS011;21906;50.812;7.132;2024-01-11T00:41:19;40.90;;;20.07;;
4106;SDS011;21906;50.812;7.132;2024-01-11T00:43:45;37.83;;;19.50;;
4106;SDS011;21906;50.812;7.132;2024-01-11T00:46:11;35.70;;;19.50;;
4106;SDS011;21906;50.812;7.132;2024-01-11T00:48:37;32.80;;;18.00;;
4106;SDS011;21906;50.812;7.132;2024-01-11T00:51:06;42.33;;;20.10;;
4106;SDS011;21906;50.812;7.132;2024-01-11T00:53:32;34.70;;;19.50;;
4106;SDS011;21906;50.812;7.132;2024-01-11T00:55:58;35.97;;;20.10;;
4106;SDS011;21906;50.812;7.132;2024-01-11T00:58:27;35.33;;;19.23;;
4106;SDS011;21906;50.812;7.132;2024-01-11T01:00:53;38.40;;;20.60;;
4106;SDS011;21906;50.812;7.132;2024-01-11T01:03:19;36.20;;;19.73;;
4106;SDS011;21906;50.812;7.132;2024-01-11T01:05:46;40.40;;;19.97;;
4106;SDS011;21906;50.812;7.132;2024-01-11T01:08:12;41.43;;;20.97;;
4106;SDS011;21906;50.812;7.132;2024-01-11T01:10:38;40.80;;;20.80;;
4106;SDS011;21906;50.812;7.132;2024-01-11T01:13:03;38.93;;;19.23;;
4106;SDS011;21906;50.812;7.132;2024-01-11T01:15:29;39.47;;;19.90;;
4106;SDS011;21906;50.812;7.132;2024-01-11T01:17:55;39.60;;;19.97;;
4106;SDS011;21906;50.812;7.132;2024-01-11T01:20:21;37.63;;;19.93;;
4106;SDS011;21906;50.812;7.132;2024-01-11T01:22:47;36.87;;;19.63;;
4106;SDS011;21906;50.812;7.132;2024-01-11T01:25:13;38.67;;;19.60;;
4106;SDS011;21906;50.812;7.132;2024-01-11T01:27:38;34.60;;;19.23;;
4106;SDS011;21906;50.812;7.132;2024-01-11T01:30:04;39.87;;;20.80;;
4106;SDS011;21906;50.812;7.132;2024-01-11T01:32:31;39.83;;;18.90;;
4106;SDS011;21906;50.812;7.132;2024-01-11T01:34:57;40.50;;;19.57;;
4106;SDS011;21906;50.812;7.132;2024-01-11T01:37:23;45.33;;;20.60;;
4106;SDS011;21906;50.812;7.132;2024-01-11T01:39:48;41.60;;;19.87;;
4106;SDS011;21906;50.812;7.132;2024-01-11T01:42:14;39.30;;;20.10;;
4106;SDS011;21906;50.812;7.132;2024-01-11T01:44:40;40.30;;;20.80;;
4106;SDS011;21906;50.812;7.132;2024-01-11T01:47:06;35.70;;;20.03;;
4106;SDS011;21906;50.812;7.132;2024-01-11T01:49:34;38.93;;;19.90;;
4106;SDS011;21906;50.812;7.132;2024-01-11T01:52:00;40.47;;;20.17;;
4106;SDS011;21906;50.812;7.132;2024-01-11T01:54:28;39.40;;;20.73;;
4106;SDS011;21906;50.812;7.132;2024-01-11T01:56:54;43.33;;;20.50;;
4106;SDS011;21906;50.812;7.132;2024-01-11T01:59:21;42.83;;;20.13;;
4106;SDS011;21906;50.812;7.132;2024-01-11T02:01:50;39.67;;;21.10;;
4106;SDS011;21906;50.812;7.132;2024-01-11T02:04:16;41.27;;;20.13;;
4106;SDS011;21906;50.812;7.132;2024-01-11T02:06:42;37.10;;;20.27;;
4106;SDS011;21906;50.812;7.132;2024-01-11T02:09:11;36.43;;;19.13;;
4106;SDS011;21906;50.812;7.132;2024-01-11T02:11:38;43.23;;;20.40;;
4106;SDS011;21906;50.812;7.132;2024-01-11T02:14:05;37.17;;;20.43;;
4106;SDS011;21906;50.812;7.132;2024-01-11T02:16:32;34.53;;;18.00;;
4106;SDS011;21906;50.812;7.132;2024-01-11T02:18:58;38.03;;;19.50;;
4106;SDS011;21906;50.812;7.132;2024-01-11T02:21:24;36.57;;;19.60;;
4106;SDS011;21906;50.812;7.132;2024-01-11T02:24:12;37.93;;;20.20;;
4106;SDS011;21906;50.812;7.132;2024-01-11T02:26:44;42.00;;;18.87;;
4106;SDS011;21906;50.812;7.132;2024-01-11T02:29:26;43.27;;;21.03;;
4106;SDS011;21906;50.812;7.132;2024-01-11T02:31:52;37.37;;;18.17;;
4106;SDS011;21906;50.812;7.132;2024-01-11T02:34:19;37.60;;;19.33;;
4106;SDS011;21906;50.812;7.132;2024-01-11T02:36:45;39.47;;;19.80;;
4106;SDS011;21906;50.812;7.132;2024-01-11T02:39:11;32.53;;;18.47;;
4106;SDS011;21906;50.812;7.132;2024-01-11T02:41:38;35.43;;;18.13;;
4106;SDS011;21906;50.812;7.132;2024-01-11T02:44:04;37.83;;;19.63;;
4106;SDS011;21906;50.812;7.132;2024-01-11T02:46:30;41.07;;;18.67;;
4106;SDS011;21906;50.812;7.132;2024-01-11T02:48:56;38.53;;;18.90;;
4106;SDS011;21906;50.812;7.132;2024-01-11T02:51:22;38.43;;;18.47;;
4106;SDS011;21906;50.812;7.132;2024-01-11T02:53:47;35.47;;;19.67;;
4106;SDS011;21906;50.812;7.132;2024-01-11T02:56:13;32.63;;;18.60;;
4106;SDS011;21906;50.812;7.132;2024-01-11T02:58:39;42.43;;;19.27;;
4106;SDS011;21906;50.812;7.132;2024-01-11T03:01:04;38.37;;;18.93;;
4106;SDS011;21906;50.812;7.132;2024-01-11T03:03:31;35.63;;;18.40;;
4106;SDS011;21906;50.812;7.132;2024-01-11T03:05:56;37.20;;;20.10;;
4106;SDS011;21906;50.812;7.132;2024-01-11T03:08:22;33.70;;;18.53;;
4106;SDS011;21906;50.812;7.132;2024-01-11T03:10:47;32.87;;;19.03;;
4106;SDS011;21906;50.812;7.132;2024-01-11T03:13:13;39.97;;;20.10;;
4106;SDS011;21906;50.812;7.132;2024-01-11T03:15:39;36.37;;;19.53;;
4106;SDS011;21906;50.812;7.132;2024-01-11T03:18:04;37.70;;;19.40;;
4106;SDS011;21906;50.812;7.132;2024-01-11T03:20:30;40.10;;;19.50;;
4106;SDS011;21906;50.812;7.132;2024-01-11T03:22:56;34.10;;;18.53;;
4106;SDS011;21906;50.812;7.132;2024-01-11T03:25:21;43.17;;;19.67;;
4106;SDS011;21906;50.812;7.132;2024-01-11T03:27:47;38.87;;;18.20;;
4106;SDS011;21906;50.812;7.132;2024-01-11T03:30:13;38.00;;;19.60;;
4106;SDS011;21906;50.812;7.132;2024-01-11T03:32:39;35.50;;;19.37;;
4106;SDS011;21906;50.812;7.132;2024-01-11T03:35:06;36.23;;;19.67;;
4106;SDS011;21906;50.812;7.132;2024-01-11T03:37:33;35.87;;;19.37;;
4106;SDS011;21906;50.812;7.132;2024-01-11T03:39:59;39.30;;;20.50;;
4106;SDS011;21906;50.812;7.132;2024-01-11T03:42:25;36.53;;;18.80;;
4106;SDS011;21906;50.812;7.132;2024-01-11T03:44:51;37.53;;;18.00;;
4106;SDS011;21906;50.812;7.132;2024-01-11T03:47:17;37.13;;;18.77;;
4106;SDS011;21906;50.812;7.132;2024-01-11T03:49:42;38.20;;;19.40;;
4106;SDS011;21906;50.812;7.132;2024-01-11T03:52:08;38.73;;;19.80;;
4106;SDS011;21906;50.812;7.132;2024-01-11T03:54:34;37.10;;;18.80;;
4106;SDS011;21906;50.812;7.132;2024-01-11T03:56:59;35.20;;;18.87;;
4106;SDS011;21906;50.812;7.132;2024-01-11T03:59:25;41.77;;;19.57;;
4106;SDS011;21906;50.812;7.132;2024-01-11T04:01:50;40.10;;;19.47;;
4106;SDS011;21906;50.812;7.132;2024-01-11T04:04:17;38.63;;;18.70;;
4106;SDS011;21906;50.812;7.132;2024-01-11T04:06:43;36.27;;;17.90;;
4106;SDS011;21906;50.812;7.132;2024-01-11T04:09:10;40.80;;;20.57;;
4106;SDS011;21906;50.812;7.132;2024-01-11T04:11:36;37.43;;;18.60;;
4106;SDS011;21906;50.812;7.132;2024-01-11T04:14:01;33.70;;;17.90;;
4106;SDS011;21906;50.812;7.132;2024-01-11T04:16:27;40.97;;;20.30;;
4106;SDS011;21906;50.812;7.132;2024-01-11T04:18:53;43.73;;;20.20;;
4106;SDS011;21906;50.812;7.132;2024-01-11T04:21:25;36.93;;;18.97;;
4106;SDS011;21906;50.812;7.132;2024-01-11T04:23:55;38.03;;;18.27;;
4106;SDS011;21906;50.812;7.132;2024-01-11T04:26:21;35.80;;;18.63;;
4106;SDS011;21906;50.812;7.132;2024-01-11T04:28:47;35.03;;;18.13;;
4106;SDS011;21906;50.812;7.132;2024-01-11T04:31:14;38.10;;;18.40;;
4106;SDS011;21906;50.812;7.132;2024-01-11T04:33:42;39.90;;;19.23;;
4106;SDS011;21906;50.812;7.132;2024-01-11T04:36:11;40.43;;;18.73;;
4106;SDS011;21906;50.812;7.132;2024-01-11T04:38:37;41.17;;;19.20;;
4106;SDS011;21906;50.812;7.132;2024-01-11T04:41:10;33.50;;;17.50;;
4106;SDS011;21906;50.812;7.132;2024-01-11T04:43:40;40.50;;;19.33;;
4106;SDS011;21906;50.812;7.132;2024-01-11T04:46:16;35.80;;;18.07;;
4106;SDS011;21906;50.812;7.132;2024-01-11T04:48:43;37.33;;;18.57;;
4106;SDS011;21906;50.812;7.132;2024-01-11T04:51:09;42.30;;;18.67;;
4106;SDS011;21906;50.812;7.132;2024-01-11T04:53:36;32.57;;;18.63;;
4106;SDS011;21906;50.812;7.132;2024-01-11T04:56:03;36.43;;;18.30;;
4106;SDS011;21906;50.812;7.132;2024-01-11T04:58:29;38.93;;;18.27;;
4106;SDS011;21906;50.812;7.132;2024-01-11T05:00:54;37.93;;;19.20;;
4106;SDS011;21906;50.812;7.132;2024-01-11T05:03:20;34.40;;;18.30;;
4106;SDS011;21906;50.812;7.132;2024-01-11T05:05:46;39.73;;;19.13;;
4106;SDS011;21906;50.812;7.132;2024-01-11T05:08:11;35.53;;;17.70;;
4106;SDS011;21906;50.812;7.132;2024-01-11T05:10:37;38.20;;;19.00;;
4106;SDS011;21906;50.812;7.132;2024-01-11T05:13:03;33.03;;;18.10;;
4106;SDS011;21906;50.812;7.132;2024-01-11T05:15:28;40.20;;;18.40;;
4106;SDS011;21906;50.812;7.132;2024-01-11T05:17:57;35.97;;;19.50;;
4106;SDS011;21906;50.812;7.132;2024-01-11T05:20:23;38.87;;;19.30;;
4106;SDS011;21906;50.812;7.132;2024-01-11T05:22:49;38.37;;;18.97;;
4106;SDS011;21906;50.812;7.132;2024-01-11T05:25:15;35.47;;;19.93;;
4106;SDS011;21906;50.812;7.132;2024-01-11T05:27:40;40.43;;;19.17;;
4106;SDS011;21906;50.812;7.132;2024-01-11T05:30:06;32.33;;;17.60;;
4106;SDS011;21906;50.812;7.132;2024-01-11T05:32:32;39.53;;;19.03;;
4106;SDS011;21906;50.812;7.132;2024-01-11T05:34:58;37.73;;;18.93;;
4106;SDS011;21906;50.812;7.132;2024-01-11T05:37:23;40.73;;;19.60;;
4106;SDS011;21906;50.812;7.132;2024-01-11T05:39:49;36.47;;;19.17;;
4106;SDS011;21906;50.812;7.132;2024-01-11T05:42:15;43.20;;;20.23;;
4106;SDS011;21906;50.812;7.132;2024-01-11T05:44:40;41.60;;;20.93;;
4106;SDS011;21906;50.812;7.132;2024-01-11T05:47:06;38.80;;;18.70;;
4106;SDS011;21906;50.812;7.132;2024-01-11T05:49:32;42.67;;;19.97;;
4106;SDS011;21906;50.812;7.132;2024-01-11T05:51:57;40.20;;;19.30;;
4106;SDS011;21906;50.812;7.132;2024-01-11T05:54:23;32.90;;;17.43;;
4106;SDS011;21906;50.812;7.132;2024-01-11T05:56:49;43.27;;;19.27;;
4106;SDS011;21906;50.812;7.132;2024-01-11T05:59:17;39.47;;;18.67;;
4106;SDS011;21906;50.812;7.132;2024-01-11T06:01:43;37.83;;;19.30;;
4106;SDS011;21906;50.812;7.132;2024-01-11T06:04:09;42.63;;;19.40;;
4106;SDS011;21906;50.812;7.132;2024-01-11T06:06:34;37.60;;;18.90;;
4106;SDS011;21906;50.812;7.132;2024-01-11T06:09:00;36.90;;;18.80;;
4106;SDS011;21906;50.812;7.132;2024-01-11T06:11:29;36.00;;;19.00;;
4106;SDS011;21906;50.812;7.132;2024-01-11T06:13:55;36.70;;;17.87;;
4106;SDS011;21906;50.812;7.132;2024-01-11T06:16:21;38.03;;;18.50;;
4106;SDS011;21906;50.812;7.132;2024-01-11T06:18:46;38.13;;;18.20;;
4106;SDS011;21906;50.812;7.132;2024-01-11T06:21:12;36.93;;;18.03;;
4106;SDS011;21906;50.812;7.132;2024-01-11T06:23:38;35.43;;;18.73;;
4106;SDS011;21906;50.812;7.132;2024-01-11T06:26:04;36.80;;;18.77;;
4106;SDS011;21906;50.812;7.132;2024-01-11T06:28:29;40.00;;;18.97;;
4106;SDS011;21906;50.812;7.132;2024-01-11T06:30:55;35.33;;;18.30;;
4106;SDS011;21906;50.812;7.132;2024-01-11T06:33:20;36.10;;;18.87;;
4106;SDS011;21906;50.812;7.132;2024-01-11T06:35:46;39.87;;;20.10;;
4106;SDS011;21906;50.812;7.132;2024-01-11T06:38:12;38.10;;;20.13;;
4106;SDS011;21906;50.812;7.132;2024-01-11T06:40:37;39.67;;;19.17;;
4106;SDS011;21906;50.812;7.132;2024-01-11T06:43:03;37.93;;;19.07;;
4106;SDS011;21906;50.812;7.132;2024-01-11T06:45:29;36.80;;;19.43;;
4106;SDS011;21906;50.812;7.132;2024-01-11T06:47:55;39.73;;;20.50;;
4106;SDS011;21906;50.812;7.132;2024-01-11T06:50:21;34.57;;;18.60;;
4106;SDS011;21906;50.812;7.132;2024-01-11T06:52:47;44.80;;;20.60;;
4106;SDS011;21906;50.812;7.132;2024-01-11T06:55:13;42.20;;;21.00;;
4106;SDS011;21906;50.812;7.132;2024-01-11T06:57:39;39.43;;;19.17;;
4106;SDS011;21906;50.812;7.132;2024-01-11T07:00:05;43.53;;;19.33;;
4106;SDS011;21906;50.812;7.132;2024-01-11T07:02:32;39.37;;;19.50;;
4106;SDS011;21906;50.812;7.132;2024-01-11T07:04:58;40.23;;;19.80;;
4106;SDS011;21906;50.812;7.132;2024-01-11T07:07:23;41.93;;;20.20;;
4106;SDS011;21906;50.812;7.132;2024-01-11T07:09:49;45.97;;;21.00;;
4106;SDS011;21906;50.812;7.132;2024-01-11T07:12:15;42.80;;;21.03;;
4106;SDS011;21906;50.812;7.132;2024-01-11T07:14:42;45.50;;;20.30;;
4106;SDS011;21906;50.812;7.132;2024-01-11T07:17:07;43.73;;;20.60;;
4106;SDS011;21906;50.812;7.132;2024-01-11T07:19:33;39.57;;;19.77;;
4106;SDS011;21906;50.812;7.132;2024-01-11T07:21:59;40.17;;;21.50;;
4106;SDS011;21906;50.812;7.132;2024-01-11T07:24:24;41.43;;;21.20;;
4106;SDS011;21906;50.812;7.132;2024-01-11T07:26:50;39.03;;;19.80;;
4106;SDS011;21906;50.812;7.132;2024-01-11T07:29:16;41.20;;;19.67;;
4106;SDS011;21906;50.812;7.132;2024-01-11T07:31:41;45.07;;;20.57;;
4106;SDS011;21906;50.812;7.132;2024-01-11T07:34:07;37.87;;;19.97;;
4106;SDS011;21906;50.812;7.132;2024-01-11T07:36:33;41.83;;;21.00;;
4106;SDS011;21906;50.812;7.132;2024-01-11T07:38:58;42.63;;;20.00;;
4106;SDS011;21906;50.812;7.132;2024-01-11T07:41:24;37.53;;;19.90;;
4106;SDS011;21906;50.812;7.132;2024-01-11T07:43:50;49.77;;;20.40;;
4106;SDS011;21906;50.812;7.132;2024-01-11T07:46:15;46.43;;;20.03;;
4106;SDS011;21906;50.812;7.132;2024-01-11T07:48:41;47.07;;;20.70;;
4106;SDS011;21906;50.812;7.132;2024-01-11T07:51:07;45.03;;;20.87;;
4106;SDS011;21906;50.812;7.132;2024-01-11T07:53:33;40.13;;;19.23;;
4106;SDS011;21906;50.812;7.132;2024-01-11T07:55:59;41.83;;;21.10;;
4106;SDS011;21906;50.812;7.132;2024-01-11T07:58:26;43.23;;;21.40;;
4106;SDS011;21906;50.812;7.132;2024-01-11T08:00:54;39.40;;;19.90;;
4106;SDS011;21906;50.812;7.132;2024-01-11T08:03:20;42.67;;;20.40;;
4106;SDS011;21906;50.812;7.132;2024-01-11T08:05:46;46.23;;;21.37;;
4106;SDS011;21906;50.812;7.132;2024-01-11T08:08:11;45.83;;;22.70;;
4106;SDS011;21906;50.812;7.132;2024-01-11T08:10:37;39.53;;;21.07;;
4106;SDS011;21906;50.812;7.132;2024-01-11T08:13:03;46.30;;;22.17;;
4106;SDS011;21906;50.812;7.132;2024-01-11T08:15:28;43.37;;;21.13;;
4106;SDS011;21906;50.812;7.132;2024-01-11T08:17:54;38.93;;;20.20;;
4106;SDS011;21906;50.812;7.132;2024-01-11T08:20:20;45.97;;;21.20;;
4106;SDS011;21906;50.812;7.132;2024-01-11T08:22:46;47.00;;;22.00;;
4106;SDS011;21906;50.812;7.132;2024-01-11T08:25:12;44.00;;;20.30;;
4106;SDS011;21906;50.812;7.132;2024-01-11T08:27:40;42.50;;;20.13;;
4106;SDS011;21906;50.812;7.132;2024-01-11T08:30:06;44.10;;;21.40;;
4106;SDS011;21906;50.812;7.132;2024-01-11T08:32:33;42.53;;;21.90;;
4106;SDS011;21906;50.812;7.132;2024-01-11T08:35:05;40.90;;;20.67;;
4106;SDS011;21906;50.812;7.132;2024-01-11T08:37:31;44.50;;;21.23;;
4106;SDS011;21906;50.812;7.132;2024-01-11T08:39:57;42.57;;;21.30;;
4106;SDS011;21906;50.812;7.132;2024-01-11T08:42:23;47.70;;;22.80;;
4106;SDS011;21906;50.812;7.132;2024-01-11T08:44:49;44.53;;;23.00;;
4106;SDS011;21906;50.812;7.132;2024-01-11T08:47:15;49.30;;;21.77;;
4106;SDS011;21906;50.812;7.132;2024-01-11T08:49:40;45.10;;;24.03;;
4106;SDS011;21906;50.812;7.132;2024-01-11T08:52:07;42.63;;;22.57;;
4106;SDS011;21906;50.812;7.132;2024-01-11T08:54:33;42.93;;;22.17;;
4106;SDS011;21906;50.812;7.132;2024-01-11T08:56:59;46.27;;;20.83;;
4106;SDS011;21906;50.812;7.132;2024-01-11T08:59:25;44.60;;;21.10;;
4106;SDS011;21906;50.812;7.132;2024-01-11T09:01:51;40.80;;;21.27;;
4106;SDS011;21906;50.812;7.132;2024-01-11T09:04:17;50.17;;;22.90;;
4106;SDS011;21906;50.812;7.132;2024-01-11T09:06:44;42.00;;;21.60;;
4106;SDS011;21906;50.812;7.132;2024-01-11T09:09:13;40.73;;;20.70;;
4106;SDS011;21906;50.812;7.132;2024-01-11T09:11:39;46.30;;;21.30;;
4106;SDS011;21906;50.812;7.132;2024-01-11T09:14:08;42.10;;;21.87;;
4106;SDS011;21906;50.812;7.132;2024-01-11T09:16:36;46.00;;;22.70;;
4106;SDS011;21906;50.812;7.132;2024-01-11T09:19:02;45.70;;;22.00;;
4106;SDS011;21906;50.812;7.132;2024-01-11T09:21:28;41.63;;;22.20;;
4106;SDS011;21906;50.812;7.132;2024-01-11T09:23:54;42.70;;;21.70;;
4106;SDS011;21906;50.812;7.132;2024-01-11T09:26:20;44.60;;;21.60;;
4106;SDS011;21906;50.812;7.132;2024-01-11T09:28:47;49.27;;;22.90;;
4106;SDS011;21906;50.812;7.132;2024-01-11T09:31:13;49.93;;;23.30;;
4106;SDS011;21906;50.812;7.132;2024-01-11T09:33:39;46.37;;;22.30;;
4106;SDS011;21906;50.812;7.132;2024-01-11T09:36:07;50.50;;;23.87;;
4106;SDS011;21906;50.812;7.132;2024-01-11T09:38:33;44.30;;;22.20;;
4106;SDS011;21906;50.812;7.132;2024-01-11T09:41:08;47.33;;;22.60;;
4106;SDS011;21906;50.812;7.132;2024-01-11T09:43:37;43.87;;;22.53;;
4106;SDS011;21906;50.812;7.132;2024-01-11T09:46:04;46.27;;;22.43;;
4106;SDS011;21906;50.812;7.132;2024-01-11T09:48:32;44.60;;;22.97;;
4106;SDS011;21906;50.812;7.132;2024-01-11T09:51:00;46.37;;;24.40;;
4106;SDS011;21906;50.812;7.132;2024-01-11T09:53:33;45.20;;;22.53;;
4106;SDS011;21906;50.812;7.132;2024-01-11T09:56:02;47.73;;;22.80;;
4106;SDS011;21906;50.812;7.132;2024-01-11T09:58:34;41.77;;;21.77;;
4106;SDS011;21906;50.812;7.132;2024-01-11T10:01:04;45.53;;;22.27;;
4106;SDS011;21906;50.812;7.132;2024-01-11T10:03:40;39.63;;;21.77;;
4106;SDS011;21906;50.812;7.132;2024-01-11T10:06:06;46.73;;;22.63;;
4106;SDS011;21906;50.812;7.132;2024-01-11T10:08:34;46.73;;;23.17;;
4106;SDS011;21906;50.812;7.132;2024-01-11T10:11:01;45.30;;;23.97;;
4106;SDS011;21906;50.812;7.132;2024-01-11T10:13:30;40.10;;;22.10;;
4106;SDS011;21906;50.812;7.132;2024-01-11T10:16:10;45.60;;;22.40;;
4106;SDS011;21906;50.812;7.132;2024-01-11T10:18:40;45.97;;;24.20;;
4106;SDS011;21906;50.812;7.132;2024-01-11T10:21:06;45.67;;;22.60;;
4106;SDS011;21906;50.812;7.132;2024-01-11T10:23:35;50.13;;;25.03;;
4106;SDS011;21906;50.812;7.132;2024-01-11T10:26:01;45.97;;;23.97;;
4106;SDS011;21906;50.812;7.132;2024-01-11T10:28:27;58.40;;;25.80;;
4106;SDS011;21906;50.812;7.132;2024-01-11T10:30:53;46.43;;;24.70;;
4106;SDS011;21906;50.812;7.132;2024-01-11T10:33:20;44.70;;;24.10;;
4106;SDS011;21906;50.812;7.132;2024-01-11T10:35:47;48.57;;;24.97;;
4106;SDS011;21906;50.812;7.132;2024-01-11T10:38:16;52.60;;;25.40;;
4106;SDS011;21906;50.812;7.132;2024-01-11T10:40:43;50.57;;;25.50;;
4106;SDS011;21906;50.812;7.132;2024-01-11T10:43:09;45.33;;;23.97;;
4106;SDS011;21906;50.812;7.132;2024-01-11T10:45:37;53.53;;;25.77;;
4106;SDS011;21906;50.812;7.132;2024-01-11T10:48:08;55.97;;;27.77;;
4106;SDS011;21906;50.812;7.132;2024-01-11T10:50:41;48.83;;;24.60;;
4106;SDS011;21906;50.812;7.132;2024-01-11T10:55:59;49.90;;;25.20;;
4106;SDS011;21906;50.812;7.132;2024-01-11T10:58:28;51.23;;;25.17;;
4106;SDS011;21906;50.812;7.132;2024-01-11T11:00:55;51.40;;;26.87;;
4106;SDS011;21906;50.812;7.132;2024-01-11T11:03:23;53.03;;;26.90;;
4106;SDS011;21906;50.812;7.132;2024-01-11T11:05:50;45.37;;;24.67;;
4106;SDS011;21906;50.812;7.132;2024-01-11T11:08:18;50.07;;;25.57;;
4106;SDS011;21906;50.812;7.132;2024-01-11T11:10:46;49.10;;;25.10;;
4106;SDS011;21906;50.812;7.132;2024-01-11T11:13:14;50.23;;;25.93;;
4106;SDS011;21906;50.812;7.132;2024-01-11T11:15:41;53.77;;;24.07;;
4106;SDS011;21906;50.812;7.132;2024-01-11T11:18:12;45.00;;;24.90;;
4106;SDS011;21906;50.812;7.132;2024-01-11T11:20:39;45.40;;;24.80;;
4106;SDS011;21906;50.812;7.132;2024-01-11T11:23:09;45.80;;;24.60;;
4106;SDS011;21906;50.812;7.132;2024-01-11T11:25:36;53.73;;;27.73;;
4106;SDS011;21906;50.812;7.132;2024-01-11T11:28:04;43.40;;;24.90;;
4106;SDS011;21906;50.812;7.132;2024-01-11T11:30:31;50.73;;;27.70;;
4106;SDS011;21906;50.812;7.132;2024-01-11T11:32:58;52.13;;;27.53;;
4106;SDS011;21906;50.812;7.132;2024-01-11T11:35:36;55.07;;;27.10;;
4106;SDS011;21906;50.812;7.132;2024-01-11T11:38:02;57.10;;;27.13;;
4106;SDS011;21906;50.812;7.132;2024-01-11T11:40:33;45.87;;;26.30;;
4106;SDS011;21906;50.812;7.132;2024-01-11T11:43:06;53.60;;;27.80;;
4106;SDS011;21906;50.812;7.132;2024-01-11T11:45:32;54.30;;;27.20;;
4106;SDS011;21906;50.812;7.132;2024-01-11T11:47:58;54.27;;;28.20;;
4106;SDS011;21906;50.812;7.132;2024-01-11T11:50:24;48.97;;;26.10;;
4106;SDS011;21906;50.812;7.132;2024-01-11T11:52:56;56.70;;;28.10;;
4106;SDS011;21906;50.812;7.132;2024-01-11T11:55:23;53.67;;;27.90;;
4106;SDS011;21906;50.812;7.132;2024-01-11T11:57:55;56.23;;;28.40;;
4106;SDS011;21906;50.812;7.132;2024-01-11T12:00:21;53.67;;;27.80;;
4106;SDS011;21906;50.812;7.132;2024-01-11T12:02:48;55.20;;;28.63;;
4106;SDS011;21906;50.812;7.132;2024-01-11T12:05:16;50.97;;;28.27;;
4106;SDS011;21906;50.812;7.132;2024-01-11T12:07:43;57.17;;;28.57;;
4106;SDS011;21906;50.812;7.132;2024-01-11T12:10:10;55.50;;;28.33;;
4106;SDS011;21906;50.812;7.132;2024-01-11T12:12:36;54.93;;;29.83;;
4106;SDS011;21906;50.812;7.132;2024-01-11T12:15:04;59.20;;;30.00;;
4106;SDS011;21906;50.812;7.132;2024-01-11T12:17:30;53.87;;;28.70;;
4106;SDS011;21906;50.812;7.132;2024-01-11T12:19:56;53.70;;;27.97;;
4106;SDS011;21906;50.812;7.132;2024-01-11T12:22:22;57.17;;;29.57;;
4106;SDS011;21906;50.812;7.132;2024-01-11T12:24:48;51.93;;;30.00;;
4106;SDS011;21906;50.812;7.132;2024-01-11T12:27:14;55.40;;;31.30;;
4106;SDS011;21906;50.812;7.132;2024-01-11T12:29:40;52.83;;;29.27;;
4106;SDS011;21906;50.812;7.132;2024-01-11T12:32:07;51.47;;;28.53;;
4106;SDS011;21906;50.812;7.132;2024-01-11T12:34:36;56.43;;;30.00;;
4106;SDS011;21906;50.812;7.132;2024-01-11T12:37:02;56.60;;;28.87;;
4106;SDS011;21906;50.812;7.132;2024-01-11T12:39:30;54.07;;;29.37;;
4106;SDS011;21906;50.812;7.132;2024-01-11T12:41:56;53.20;;;30.37;;
4106;SDS011;21906;50.812;7.132;2024-01-11T12:44:25;57.13;;;30.50;;
4106;SDS011;21906;50.812;7.132;2024-01-11T12:46:51;52.87;;;29.43;;
4106;SDS011;21906;50.812;7.132;2024-01-11T12:49:17;53.07;;;29.60;;
4106;SDS011;21906;50.812;7.132;2024-01-11T12:51:43;60.37;;;32.33;;
4106;SDS011;21906;50.812;7.132;2024-01-11T12:54:12;55.53;;;31.07;;
4106;SDS011;21906;50.812;7.132;2024-01-11T12:56:48;56.83;;;31.93;;
4106;SDS011;21906;50.812;7.132;2024-01-11T12:59:15;59.03;;;31.50;;
4106;SDS011;21906;50.812;7.132;2024-01-11T13:01:41;59.30;;;34.00;;
4106;SDS011;21906;50.812;7.132;2024-01-11T13:04:10;56.43;;;30.23;;
4106;SDS011;21906;50.812;7.132;2024-01-11T13:06:36;53.50;;;31.30;;
4106;SDS011;21906;50.812;7.132;2024-01-11T13:09:02;57.00;;;32.10;;
4106;SDS011;21906;50.812;7.132;2024-01-11T13:11:29;53.50;;;30.17;;
4106;SDS011;21906;50.812;7.132;2024-01-11T13:13:55;58.77;;;33.20;;
4106;SDS011;21906;50.812;7.132;2024-01-11T13:16:24;55.63;;;30.80;;
4106;SDS011;21906;50.812;7.132;2024-01-11T13:18:53;54.30;;;31.10;;
4106;SDS011;21906;50.812;7.132;2024-01-11T13:21:23;50.07;;;30.23;;
4106;SDS011;21906;50.812;7.132;2024-01-11T13:23:48;52.50;;;31.73;;
4106;SDS011;21906;50.812;7.132;2024-01-11T13:26:14;56.90;;;32.00;;
4106;SDS011;21906;50.812;7.132;2024-01-11T13:28:40;54.20;;;33.03;;
4106;SDS011;21906;50.812;7.132;2024-01-11T13:31:06;54.30;;;32.70;;
4106;SDS011;21906;50.812;7.132;2024-01-11T13:33:34;53.90;;;31.47;;
4106;SDS011;21906;50.812;7.132;2024-01-11T13:36:01;57.60;;;33.17;;
4106;SDS011;21906;50.812;7.132;2024-01-11T13:38:26;55.37;;;30.00;;
4106;SDS011;21906;50.812;7.132;2024-01-11T13:40:52;63.10;;;33.53;;
4106;SDS011;21906;50.812;7.132;2024-01-11T13:43:18;57.13;;;32.50;;
4106;SDS011;21906;50.812;7.132;2024-01-11T13:45:44;52.40;;;31.00;;
4106;SDS011;21906;50.812;7.132;2024-01-11T13:48:10;56.23;;;31.53;;
4106;SDS011;21906;50.812;7.132;2024-01-11T13:50:36;53.33;;;30.40;;
4106;SDS011;21906;50.812;7.132;2024-01-11T13:53:02;48.47;;;29.83;;
4106;SDS011;21906;50.812;7.132;2024-01-11T13:55:28;51.00;;;30.67;;
4106;SDS011;21906;50.812;7.132;2024-01-11T13:58:02;61.10;;;32.30;;
4106;SDS011;21906;50.812;7.132;2024-01-11T14:00:28;59.03;;;33.10;;
4106;SDS011;21906;50.812;7.132;2024-01-11T14:02:54;65.07;;;32.77;;
4106;SDS011;21906;50.812;7.132;2024-01-11T14:05:20;53.17;;;31.40;;
4106;SDS011;21906;50.812;7.132;2024-01-11T14:07:45;57.90;;;32.43;;
4106;SDS011;21906;50.812;7.132;2024-01-11T14:10:13;61.87;;;31.83;;
4106;SDS011;21906;50.812;7.132;2024-01-11T14:12:40;59.77;;;32.07;;
4106;SDS011;21906;50.812;7.132;2024-01-11T14:15:07;58.53;;;30.97;;
4106;SDS011;21906;50.812;7.132;2024-01-11T14:17:37;55.60;;;31.60;;
4106;SDS011;21906;50.812;7.132;2024-01-11T14:20:03;54.33;;;30.80;;
4106;SDS011;21906;50.812;7.132;2024-01-11T14:22:32;50.37;;;28.17;;
4106;SDS011;21906;50.812;7.132;2024-01-11T14:24:58;51.80;;;29.20;;
4106;SDS011;21906;50.812;7.132;2024-01-11T14:27:23;51.40;;;29.80;;
4106;SDS011;21906;50.812;7.132;2024-01-11T14:29:49;53.47;;;30.07;;
4106;SDS011;21906;50.812;7.132;2024-01-11T14:32:15;53.67;;;28.83;;
4106;SDS011;21906;50.812;7.132;2024-01-11T14:34:44;58.43;;;31.17;;